sensor_id;sensor_type;location;lat;lon;timestamp;pressure;altitude;pressure_sealevel;temperature;humidity
49723;BME280;43484;43.608;1.458;2023-04-02T00:07:52;99612.59;;;7.12;100.00
49723;BME280;43484;43.608;1.458;2023-04-02T00:13:10;99631.25;;;7.11;100.00
49723;BME280;43484;43.608;1.458;2023-04-02T00:15:45;99626.16;;;7.11;100.00
49723;BME280;43484;43.608;1.458;2023-04-02T00:18:16;99624.22;;;7.05;100.00
49723;BME280;43484;43.608;1.458;2023-04-02T00:20:46;99631.94;;;7.07;100.00
49723;BME280;43484;43.608;1.458;2023-04-02T00:23:14;99630.16;;;7.04;100.00
49723;BME280;43484;43.608;1.458;2023-04-02T00:25:42;99623.50;;;7.08;100.00
49723;BME280;43484;43.608;1.458;2023-04-02T00:28:17;99627.78;;;7.09;100.00
49723;BME280;43484;43.608;1.458;2023-04-02T00:30:55;99627.72;;;7.07;100.00
49723;BME280;43484;43.608;1.458;2023-04-02T00:33:26;99623.63;;;7.11;100.00
49723;BME280;43484;43.608;1.458;2023-04-02T00:35:54;99632.13;;;7.11;100.00
49723;BME280;43484;43.608;1.458;2023-04-02T00:40:54;99617.91;;;7.16;100.00
49723;BME280;43484;43.608;1.458;2023-04-02T00:43:23;99628.66;;;7.09;100.00
49723;BME280;43484;43.608;1.458;2023-04-02T00:45:54;99628.78;;;7.12;100.00
49723;BME280;43484;43.608;1.458;2023-04-02T00:51:31;99620.84;;;7.05;100.00
49723;BME280;43484;43.608;1.458;2023-04-02T00:54:03;99628.78;;;7.12;100.00
49723;BME280;43484;43.608;1.458;2023-04-02T00:59:21;99629.66;;;7.13;100.00
49723;BME280;43484;43.608;1.458;2023-04-02T01:02:37;99617.03;;;7.16;100.00
49723;BME280;43484;43.608;1.458;2023-04-02T01:04:40;99621.19;;;7.14;100.00
49723;BME280;43484;43.608;1.458;2023-04-02T01:07:09;99619.47;;;7.13;100.00
49723;BME280;43484;43.608;1.458;2023-04-02T01:09:49;99623.06;;;7.18;100.00
49723;BME280;43484;43.608;1.458;2023-04-02T01:12:43;99623.06;;;7.18;100.00
49723;BME280;43484;43.608;1.458;2023-04-02T01:15:20;99639.13;;;7.17;100.00
49723;BME280;43484;43.608;1.458;2023-04-02T01:26:13;99623.06;;;7.18;100.00
49723;BME280;43484;43.608;1.458;2023-04-02T01:31:24;99623.38;;;7.27;100.00
49723;BME280;43484;43.608;1.458;2023-04-02T01:33:53;99626.59;;;7.21;100.00
49723;BME280;43484;43.608;1.458;2023-04-02T01:42:18;99626.97;;;7.32;100.00
49723;BME280;43484;43.608;1.458;2023-04-02T01:47:15;99619.28;;;7.30;100.00
49723;BME280;43484;43.608;1.458;2023-04-02T01:49:44;99623.66;;;7.33;100.00
49723;BME280;43484;43.608;1.458;2023-04-02T01:52:15;99629.59;;;7.33;100.00
49723;BME280;43484;43.608;1.458;2023-04-02T01:54:44;99622.03;;;7.35;100.00
49723;BME280;43484;43.608;1.458;2023-04-02T01:57:12;99626.19;;;7.33;100.00
49723;BME280;43484;43.608;1.458;2023-04-02T01:59:39;99615.19;;;7.34;100.00
49723;BME280;43484;43.608;1.458;2023-04-02T02:02:10;99608.63;;;7.40;100.00
49723;BME280;43484;43.608;1.458;2023-04-02T02:04:38;99617.63;;;7.31;100.00
49723;BME280;43484;43.608;1.458;2023-04-02T02:07:11;99611.53;;;7.27;100.00
49723;BME280;43484;43.608;1.458;2023-04-02T02:09:39;99606.38;;;7.26;100.00
49723;BME280;43484;43.608;1.458;2023-04-02T02:12:10;99600.28;;;7.22;100.00
49723;BME280;43484;43.608;1.458;2023-04-02T02:14:38;99596.09;;;7.23;100.00
49723;BME280;43484;43.608;1.458;2023-04-02T02:17:13;99600.25;;;7.21;100.00
49723;BME280;43484;43.608;1.458;2023-04-02T02:19:44;99596.75;;;7.19;100.00
49723;BME280;43484;43.608;1.458;2023-04-02T02:22:16;99599.31;;;7.19;100.00
49723;BME280;43484;43.608;1.458;2023-04-02T02:24:44;99584.84;;;7.18;100.00
49723;BME280;43484;43.608;1.458;2023-04-02T02:27:31;99579.81;;;7.19;100.00
49723;BME280;43484;43.608;1.458;2023-04-02T02:30:19;99581.41;;;7.17;100.00
49723;BME280;43484;43.608;1.458;2023-04-02T02:35:58;99585.22;;;7.28;100.00
49723;BME280;43484;43.608;1.458;2023-04-02T02:41:13;99578.97;;;7.20;100.00
49723;BME280;43484;43.608;1.458;2023-04-02T02:43:49;99589.69;;;7.12;100.00
49723;BME280;43484;43.608;1.458;2023-04-02T02:46:19;99585.78;;;7.20;100.00
49723;BME280;43484;43.608;1.458;2023-04-02T02:48:48;99579.81;;;7.19;100.00
49723;BME280;43484;43.608;1.458;2023-04-02T02:51:22;99582.91;;;7.12;100.00
49723;BME280;43484;43.608;1.458;2023-04-02T02:53:56;99588.91;;;7.13;100.00
49723;BME280;43484;43.608;1.458;2023-04-02T02:56:27;99582.03;;;7.12;100.00
49723;BME280;43484;43.608;1.458;2023-04-02T02:58:56;99593.22;;;7.15;100.00
49723;BME280;43484;43.608;1.458;2023-04-02T03:01:28;99586.75;;;7.23;100.00
49723;BME280;43484;43.608;1.458;2023-04-02T03:03:55;99585.06;;;7.24;100.00
49723;BME280;43484;43.608;1.458;2023-04-02T03:06:23;99594.47;;;7.25;100.00
49723;BME280;43484;43.608;1.458;2023-04-02T03:09:10;99587.88;;;7.30;100.00
49723;BME280;43484;43.608;1.458;2023-04-02T03:12:31;99592.97;;;7.30;100.00
49723;BME280;43484;43.608;1.458;2023-04-02T03:17:18;99586.53;;;7.39;100.00
49723;BME280;43484;43.608;1.458;2023-04-02T03:20:17;99588.13;;;7.37;100.00
49723;BME280;43484;43.608;1.458;2023-04-02T03:22:50;99587.25;;;7.37;100.00
49723;BME280;43484;43.608;1.458;2023-04-02T03:28:05;99601.03;;;7.42;100.00
49723;BME280;43484;43.608;1.458;2023-04-02T03:30:41;99598.38;;;7.39;100.00
49723;BME280;43484;43.608;1.458;2023-04-02T03:33:13;99599.38;;;7.42;100.00
49723;BME280;43484;43.608;1.458;2023-04-02T03:38:29;99585.69;;;7.40;100.00
49723;BME280;43484;43.608;1.458;2023-04-02T03:41:16;99592.34;;;7.37;100.00
49723;BME280;43484;43.608;1.458;2023-04-02T03:43:50;99589.94;;;7.40;100.00
49723;BME280;43484;43.608;1.458;2023-04-02T03:48:54;99583.50;;;7.49;100.00
49723;BME280;43484;43.608;1.458;2023-04-02T03:54:21;99588.59;;;7.49;100.00
49723;BME280;43484;43.608;1.458;2023-04-02T03:56:48;99581.94;;;7.53;100.00
49723;BME280;43484;43.608;1.458;2023-04-02T04:02:22;99586.69;;;7.44;100.00
49723;BME280;43484;43.608;1.458;2023-04-02T04:04:52;99583.34;;;7.45;100.00
49723;BME280;43484;43.608;1.458;2023-04-02T04:07:35;99573.16;;;7.45;100.00
49723;BME280;43484;43.608;1.458;2023-04-02T04:10:06;99578.47;;;7.51;100.00
49723;BME280;43484;43.608;1.458;2023-04-02T04:12:38;99578.34;;;7.48;100.00
49723;BME280;43484;43.608;1.458;2023-04-02T04:15:11;99575.81;;;7.48;100.00
49723;BME280;43484;43.608;1.458;2023-04-02T04:18:04;99579.28;;;7.50;100.00
49723;BME280;43484;43.608;1.458;2023-04-02T04:20:48;99586.94;;;7.50;100.00
49723;BME280;43484;43.608;1.458;2023-04-02T04:23:26;99586.16;;;7.52;100.00
49723;BME280;43484;43.608;1.458;2023-04-02T04:25:57;99590.44;;;7.53;100.00
49723;BME280;43484;43.608;1.458;2023-04-02T04:28:44;99592.25;;;7.56;100.00
49723;BME280;43484;43.608;1.458;2023-04-02T04:31:22;99597.56;;;7.62;100.00
49723;BME280;43484;43.608;1.458;2023-04-02T04:33:54;99586.78;;;7.69;100.00
49723;BME280;43484;43.608;1.458;2023-04-02T04:36:32;99586.63;;;7.64;100.00
49723;BME280;43484;43.608;1.458;2023-04-02T04:39:09;99598.34;;;7.59;100.00
49723;BME280;43484;43.608;1.458;2023-04-02T04:41:40;99598.44;;;7.62;100.00
49723;BME280;43484;43.608;1.458;2023-04-02T04:44:15;99605.25;;;7.63;100.00
49723;BME280;43484;43.608;1.458;2023-04-02T04:46:58;99599.41;;;7.66;100.00
49723;BME280;43484;43.608;1.458;2023-04-02T04:49:51;99605.34;;;7.65;100.00
49723;BME280;43484;43.608;1.458;2023-04-02T04:52:23;99606.97;;;7.63;100.00
49723;BME280;43484;43.608;1.458;2023-04-02T04:54:50;99609.72;;;7.69;100.00
49723;BME280;43484;43.608;1.458;2023-04-02T05:00:05;99602.97;;;7.70;100.00
49723;BME280;43484;43.608;1.458;2023-04-02T05:05:30;99620.13;;;7.74;100.00
49723;BME280;43484;43.608;1.458;2023-04-02T05:08:04;99608.84;;;7.68;100.00
49723;BME280;43484;43.608;1.458;2023-04-02T05:10:51;99615.59;;;7.67;100.00
49723;BME280;43484;43.608;1.458;2023-04-02T05:13:31;99613.84;;;7.65;100.00
49723;BME280;43484;43.608;1.458;2023-04-02T05:19:03;99603.53;;;7.62;100.00
49723;BME280;43484;43.608;1.458;2023-04-02T05:24:25;99618.94;;;7.65;100.00
49723;BME280;43484;43.608;1.458;2023-04-02T05:26:58;99621.22;;;7.58;100.00
49723;BME280;43484;43.608;1.458;2023-04-02T05:29:37;99623.81;;;7.59;100.00
49723;BME280;43484;43.608;1.458;2023-04-02T05:32:34;99623.75;;;7.58;100.00
49723;BME280;43484;43.608;1.458;2023-04-02T05:35:03;99629.06;;;7.64;100.00
49723;BME280;43484;43.608;1.458;2023-04-02T05:37:32;99629.91;;;7.63;100.00
49723;BME280;43484;43.608;1.458;2023-04-02T05:40:08;99628.16;;;7.62;100.00
49723;BME280;43484;43.608;1.458;2023-04-02T05:42:42;99633.44;;;7.67;100.00
49723;BME280;43484;43.608;1.458;2023-04-02T05:45:22;99631.16;;;7.74;100.00
49723;BME280;43484;43.608;1.458;2023-04-02T05:47:54;99633.59;;;7.71;100.00
49723;BME280;43484;43.608;1.458;2023-04-02T05:50:28;99631.97;;;7.73;100.00
49723;BME280;43484;43.608;1.458;2023-04-02T05:58:34;99643.22;;;7.78;100.00
49723;BME280;43484;43.608;1.458;2023-04-02T06:01:52;99639.75;;;7.76;100.00
49723;BME280;43484;43.608;1.458;2023-04-02T06:04:19;99645.94;;;7.83;100.00
49723;BME280;43484;43.608;1.458;2023-04-02T06:07:07;99648.59;;;7.86;100.00
49723;BME280;43484;43.608;1.458;2023-04-02T06:09:51;99650.41;;;7.88;100.00
49723;BME280;43484;43.608;1.458;2023-04-02T06:12:28;99654.66;;;7.89;100.00
49723;BME280;43484;43.608;1.458;2023-04-02T06:14:57;99657.22;;;7.89;100.00
49723;BME280;43484;43.608;1.458;2023-04-02T06:17:24;99658.22;;;7.93;100.00
49723;BME280;43484;43.608;1.458;2023-04-02T06:19:52;99658.25;;;7.94;100.00
49723;BME280;43484;43.608;1.458;2023-04-02T06:22:25;99655.91;;;7.99;100.00
49723;BME280;43484;43.608;1.458;2023-04-02T06:25:01;99661.91;;;8.01;100.00
49723;BME280;43484;43.608;1.458;2023-04-02T06:27:29;99666.38;;;8.06;100.00
49723;BME280;43484;43.608;1.458;2023-04-02T06:29:59;99656.59;;;8.18;100.00
49723;BME280;43484;43.608;1.458;2023-04-02T06:32:28;99649.59;;;8.13;100.00
49723;BME280;43484;43.608;1.458;2023-04-02T06:34:54;99655.72;;;8.18;100.00
49723;BME280;43484;43.608;1.458;2023-04-02T06:37:33;99655.72;;;8.18;100.00
49723;BME280;43484;43.608;1.458;2023-04-02T06:40:02;99654.84;;;8.17;100.00
49723;BME280;43484;43.608;1.458;2023-04-02T06:42:33;99653.44;;;8.24;100.00
49723;BME280;43484;43.608;1.458;2023-04-02T06:45:02;99660.31;;;8.26;100.00
49723;BME280;43484;43.608;1.458;2023-04-02T06:47:40;99657.13;;;8.32;100.00
49723;BME280;43484;43.608;1.458;2023-04-02T06:50:38;99667.53;;;8.38;100.00
49723;BME280;43484;43.608;1.458;2023-04-02T06:53:04;99673.53;;;8.38;100.00
49723;BME280;43484;43.608;1.458;2023-04-02T06:55:42;99672.06;;;8.45;100.00
49723;BME280;43484;43.608;1.458;2023-04-02T06:58:09;99669.75;;;8.52;100.00
49723;BME280;43484;43.608;1.458;2023-04-02T07:00:43;99674.81;;;8.51;100.00
49723;BME280;43484;43.608;1.458;2023-04-02T07:03:26;99676.13;;;8.63;100.00
49723;BME280;43484;43.608;1.458;2023-04-02T07:05:53;99675.59;;;8.73;100.00
49723;BME280;43484;43.608;1.458;2023-04-02T07:08:20;99676.59;;;8.77;100.00
49723;BME280;43484;43.608;1.458;2023-04-02T07:10:47;99680.72;;;8.73;100.00
49723;BME280;43484;43.608;1.458;2023-04-02T07:13:16;99683.13;;;8.69;100.00
49723;BME280;43484;43.608;1.458;2023-04-02T07:15:48;99675.97;;;8.84;100.00
49723;BME280;43484;43.608;1.458;2023-04-02T07:18:22;99673.97;;;8.75;100.00
49723;BME280;43484;43.608;1.458;2023-04-02T07:20:51;99679.09;;;8.75;100.00
49723;BME280;43484;43.608;1.458;2023-04-02T07:23:17;99687.72;;;8.79;100.00
49723;BME280;43484;43.608;1.458;2023-04-02T07:25:51;99699.47;;;8.74;100.00
49723;BME280;43484;43.608;1.458;2023-04-02T07:28:18;99692.00;;;8.80;100.00
49723;BME280;43484;43.608;1.458;2023-04-02T07:30:47;99699.06;;;8.87;100.00
49723;BME280;43484;43.608;1.458;2023-04-02T07:33:16;99695.94;;;8.96;100.00
49723;BME280;43484;43.608;1.458;2023-04-02T07:35:43;99702.69;;;8.94;100.00
49723;BME280;43484;43.608;1.458;2023-04-02T07:38:10;99710.53;;;9.00;100.00
49723;BME280;43484;43.608;1.458;2023-04-02T07:40:37;99723.31;;;9.00;100.00
49723;BME280;43484;43.608;1.458;2023-04-02T07:43:04;99724.34;;;9.05;100.00
49723;BME280;43484;43.608;1.458;2023-04-02T07:45:31;99738.63;;;9.00;100.00
49723;BME280;43484;43.608;1.458;2023-04-02T07:48:09;99751.50;;;9.03;100.00
49723;BME280;43484;43.608;1.458;2023-04-02T07:50:37;99749.66;;;8.97;100.00
49723;BME280;43484;43.608;1.458;2023-04-02T07:53:03;99753.91;;;8.98;100.00
49723;BME280;43484;43.608;1.458;2023-04-02T07:55:30;99752.66;;;9.11;100.00
49723;BME280;43484;43.608;1.458;2023-04-02T07:57:57;99760.97;;;9.05;100.00
49723;BME280;43484;43.608;1.458;2023-04-02T08:00:26;99766.03;;;9.04;100.00
49723;BME280;43484;43.608;1.458;2023-04-02T08:02:53;99761.44;;;9.19;100.00
49723;BME280;43484;43.608;1.458;2023-04-02T08:05:20;99770.69;;;9.15;100.00
49723;BME280;43484;43.608;1.458;2023-04-02T08:07:55;99783.94;;;9.29;100.00
49723;BME280;43484;43.608;1.458;2023-04-02T08:10:22;99795.69;;;9.24;100.00
49723;BME280;43484;43.608;1.458;2023-04-02T08:12:49;99793.94;;;9.23;100.00
49723;BME280;43484;43.608;1.458;2023-04-02T08:15:16;99801.88;;;9.30;100.00
49723;BME280;43484;43.608;1.458;2023-04-02T08:17:44;99801.09;;;9.33;100.00
49723;BME280;43484;43.608;1.458;2023-04-02T08:20:19;99812.34;;;9.38;100.00
49723;BME280;43484;43.608;1.458;2023-04-02T08:22:48;99816.00;;;9.44;100.00
49723;BME280;43484;43.608;1.458;2023-04-02T08:25:15;99812.34;;;9.38;100.00
49723;BME280;43484;43.608;1.458;2023-04-02T08:27:45;99827.09;;;9.45;100.00
49723;BME280;43484;43.608;1.458;2023-04-02T08:30:13;99836.66;;;9.50;100.00
49723;BME280;43484;43.608;1.458;2023-04-02T08:32:41;99836.47;;;9.69;100.00
49723;BME280;43484;43.608;1.458;2023-04-02T08:35:10;99840.47;;;9.63;100.00
49723;BME280;43484;43.608;1.458;2023-04-02T08:37:37;99855.31;;;9.73;100.00
49723;BME280;43484;43.608;1.458;2023-04-02T08:40:04;99858.25;;;9.85;100.00
49723;BME280;43484;43.608;1.458;2023-04-02T08:46:05;99886.72;;;9.69;100.00
49723;BME280;43484;43.608;1.458;2023-04-02T08:48:04;99906.38;;;9.70;100.00
49723;BME280;43484;43.608;1.458;2023-04-02T08:50:38;99900.06;;;9.85;100.00
49723;BME280;43484;43.608;1.458;2023-04-02T08:53:13;99912.03;;;9.86;100.00
49723;BME280;43484;43.608;1.458;2023-04-02T08:55:56;99925.19;;;9.97;100.00
49723;BME280;43484;43.608;1.458;2023-04-02T08:58:38;99935.97;;;10.12;100.00
49723;BME280;43484;43.608;1.458;2023-04-02T09:03:57;100004.81;;;10.04;100.00
49723;BME280;43484;43.608;1.458;2023-04-02T09:06:24;100023.66;;;10.32;100.00
49723;BME280;43484;43.608;1.458;2023-04-02T09:08:54;100039.25;;;10.38;100.00
49723;BME280;43484;43.608;1.458;2023-04-02T09:13:57;100074.06;;;10.58;100.00
49723;BME280;43484;43.608;1.458;2023-04-02T09:16:57;100103.13;;;10.58;100.00
49723;BME280;43484;43.608;1.458;2023-04-02T09:19:33;100120.94;;;10.32;100.00
49723;BME280;43484;43.608;1.458;2023-04-02T09:24:32;100135.13;;;10.46;100.00
49723;BME280;43484;43.608;1.458;2023-04-02T09:26:58;100136.09;;;10.49;100.00
49723;BME280;43484;43.608;1.458;2023-04-02T09:34:43;100159.97;;;10.48;100.00
49723;BME280;43484;43.608;1.458;2023-04-02T09:37:20;100159.88;;;10.47;100.00
49723;BME280;43484;43.608;1.458;2023-04-02T09:39:50;100137.94;;;10.53;100.00
49723;BME280;43484;43.608;1.458;2023-04-02T09:42:32;100110.13;;;10.64;100.00
49723;BME280;43484;43.608;1.458;2023-04-02T09:47:38;100093.31;;;10.47;100.00
49723;BME280;43484;43.608;1.458;2023-04-02T09:52:47;100083.00;;;10.45;100.00
49723;BME280;43484;43.608;1.458;2023-04-02T09:57:41;100095.25;;;10.79;100.00
49723;BME280;43484;43.608;1.458;2023-04-02T10:00:18;100091.72;;;11.02;100.00
49723;BME280;43484;43.608;1.458;2023-04-02T10:03:27;100139.63;;;11.03;100.00
49723;BME280;43484;43.608;1.458;2023-04-02T10:06:12;100146.34;;;10.99;100.00
49723;BME280;43484;43.608;1.458;2023-04-02T10:08:41;100155.03;;;11.04;100.00
49723;BME280;43484;43.608;1.458;2023-04-02T10:11:21;100161.06;;;10.80;100.00
49723;BME280;43484;43.608;1.458;2023-04-02T10:17:11;100209.72;;;11.03;100.00
49723;BME280;43484;43.608;1.458;2023-04-02T10:19:44;100230.94;;;10.99;100.00
49723;BME280;43484;43.608;1.458;2023-04-02T10:22:16;100237.59;;;11.19;100.00
49723;BME280;43484;43.608;1.458;2023-04-02T10:24:43;100255.91;;;11.05;100.00
49723;BME280;43484;43.608;1.458;2023-04-02T10:27:36;100273.22;;;11.12;100.00
49723;BME280;43484;43.608;1.458;2023-04-02T10:30:33;100284.09;;;11.05;100.00
49723;BME280;43484;43.608;1.458;2023-04-02T10:47:17;99960.88;;;10.43;100.00
49723;BME280;43484;43.608;1.458;2023-04-02T10:53:09;100012.03;;;10.41;100.00
49723;BME280;43484;43.608;1.458;2023-04-02T10:55:41;100090.75;;;10.47;100.00
49723;BME280;43484;43.608;1.458;2023-04-02T10:58:29;100097.84;;;10.80;100.00
49723;BME280;43484;43.608;1.458;2023-04-02T11:01:06;100120.13;;;10.81;100.00
49723;BME280;43484;43.608;1.458;2023-04-02T11:03:45;100171.47;;;10.84;100.00
49723;BME280;43484;43.608;1.458;2023-04-02T11:06:24;100179.72;;;10.76;100.00
49723;BME280;43484;43.608;1.458;2023-04-02T11:08:57;100173.69;;;10.75;100.00
49723;BME280;43484;43.608;1.458;2023-04-02T11:14:07;100208.22;;;10.85;100.00
49723;BME280;43484;43.608;1.458;2023-04-02T11:16:37;100214.75;;;11.02;100.00
49723;BME280;43484;43.608;1.458;2023-04-02T11:21:55;100244.44;;;11.20;100.00
49723;BME280;43484;43.608;1.458;2023-04-02T11:29:43;100243.69;;;10.98;100.00
49723;BME280;43484;43.608;1.458;2023-04-02T11:37:37;100180.69;;;11.04;100.00
49723;BME280;43484;43.608;1.458;2023-04-02T11:52:55;100107.31;;;10.31;100.00
49723;BME280;43484;43.608;1.458;2023-04-02T11:55:29;100025.66;;;10.40;100.00
49723;BME280;43484;43.608;1.458;2023-04-02T11:58:16;99983.44;;;10.54;100.00
49723;BME280;43484;43.608;1.458;2023-04-02T12:04:42;99936.16;;;10.99;100.00
49723;BME280;43484;43.608;1.458;2023-04-02T12:09:30;100048.13;;;11.28;100.00
49723;BME280;43484;43.608;1.458;2023-04-02T12:12:25;100106.19;;;11.55;100.00
49723;BME280;43484;43.608;1.458;2023-04-02T12:14:54;100158.75;;;11.67;100.00
49723;BME280;43484;43.608;1.458;2023-04-02T12:17:36;100234.44;;;11.53;100.00
49723;BME280;43484;43.608;1.458;2023-04-02T12:22:37;100270.78;;;11.15;100.00
49723;BME280;43484;43.608;1.458;2023-04-02T12:27:47;100281.94;;;10.45;100.00
49723;BME280;43484;43.608;1.458;2023-04-02T12:30:19;100229.63;;;9.94;100.00
49723;BME280;43484;43.608;1.458;2023-04-02T12:32:46;100180.38;;;9.77;100.00
49723;BME280;43484;43.608;1.458;2023-04-02T12:35:26;100088.22;;;9.76;100.00
49723;BME280;43484;43.608;1.458;2023-04-02T12:37:53;99998.19;;;9.86;100.00
49723;BME280;43484;43.608;1.458;2023-04-02T12:40:20;99930.34;;;9.98;100.00
49723;BME280;43484;43.608;1.458;2023-04-02T12:42:47;99897.47;;;10.09;100.00
49723;BME280;43484;43.608;1.458;2023-04-02T12:45:25;99891.31;;;10.29;100.00
49723;BME280;43484;43.608;1.458;2023-04-02T12:47:56;99887.53;;;10.45;100.00
49723;BME280;43484;43.608;1.458;2023-04-02T12:50:23;99870.03;;;10.58;100.00
49723;BME280;43484;43.608;1.458;2023-04-02T12:52:51;99873.13;;;10.76;100.00
49723;BME280;43484;43.608;1.458;2023-04-02T12:55:23;99892.66;;;11.02;100.00
49723;BME280;43484;43.608;1.458;2023-04-02T12:57:57;99977.59;;;11.14;100.00
49723;BME280;43484;43.608;1.458;2023-04-02T13:05:39;100296.75;;;11.51;100.00
49723;BME280;43484;43.608;1.458;2023-04-02T13:08:21;100309.31;;;11.67;100.00
49723;BME280;43484;43.608;1.458;2023-04-02T13:10:53;100314.72;;;11.76;100.00
49723;BME280;43484;43.608;1.458;2023-04-02T13:13:25;100320.88;;;11.81;100.00
49723;BME280;43484;43.608;1.458;2023-04-02T13:16:21;100321.34;;;11.69;100.00
49723;BME280;43484;43.608;1.458;2023-04-02T13:18:49;100325.47;;;11.64;100.00
49723;BME280;43484;43.608;1.458;2023-04-02T13:23:46;100331.41;;;11.88;100.00
49723;BME280;43484;43.608;1.458;2023-04-02T13:26:25;100333.09;;;11.88;100.00
49723;BME280;43484;43.608;1.458;2023-04-02T13:31:32;100343.13;;;12.07;100.00
49723;BME280;43484;43.608;1.458;2023-04-02T13:33:59;100359.31;;;12.04;100.00
49723;BME280;43484;43.608;1.458;2023-04-02T13:36:27;100352.56;;;12.08;100.00
49723;BME280;43484;43.608;1.458;2023-04-02T13:38:55;100346.84;;;12.16;100.00
49723;BME280;43484;43.608;1.458;2023-04-02T13:41:24;100361.47;;;12.45;100.00
49723;BME280;43484;43.608;1.458;2023-04-02T13:43:52;100353.25;;;12.29;100.00
49723;BME280;43484;43.608;1.458;2023-04-02T13:46:23;100373.06;;;12.33;100.00
49723;BME280;43484;43.608;1.458;2023-04-02T13:48:51;100401.16;;;11.52;100.00
49723;BME280;43484;43.608;1.458;2023-04-02T13:51:21;100314.28;;;10.88;100.00
49723;BME280;43484;43.608;1.458;2023-04-02T13:53:54;100211.09;;;10.70;100.00
49723;BME280;43484;43.608;1.458;2023-04-02T13:56:22;100202.59;;;10.46;100.00
49723;BME280;43484;43.608;1.458;2023-04-02T13:58:50;100120.31;;;10.37;100.00
49723;BME280;43484;43.608;1.458;2023-04-02T14:01:18;100071.19;;;10.24;100.00
49723;BME280;43484;43.608;1.458;2023-04-02T14:03:46;100026.94;;;10.28;100.00
49723;BME280;43484;43.608;1.458;2023-04-02T14:06:21;99972.84;;;10.44;100.00
49723;BME280;43484;43.608;1.458;2023-04-02T14:09:04;99968.03;;;10.53;100.00
49723;BME280;43484;43.608;1.458;2023-04-02T14:12:16;99968.06;;;10.54;100.00
49723;BME280;43484;43.608;1.458;2023-04-02T14:20:43;100001.13;;;10.73;100.00
49723;BME280;43484;43.608;1.458;2023-04-02T14:26:16;100009.69;;;11.02;100.00
49723;BME280;43484;43.608;1.458;2023-04-02T14:28:57;99989.00;;;11.24;100.00
49723;BME280;43484;43.608;1.458;2023-04-02T14:31:36;100053.34;;;11.31;100.00
49723;BME280;43484;43.608;1.458;2023-04-02T14:41:51;100267.03;;;12.09;100.00
49723;BME280;43484;43.608;1.458;2023-04-02T14:44:22;100278.00;;;12.05;100.00
49723;BME280;43484;43.608;1.458;2023-04-02T14:46:55;100293.88;;;12.20;100.00
49723;BME280;43484;43.608;1.458;2023-04-02T14:49:33;100323.28;;;12.29;100.00
49723;BME280;43484;43.608;1.458;2023-04-02T14:52:10;100337.22;;;12.37;100.00
49723;BME280;43484;43.608;1.458;2023-04-02T14:54:58;100351.16;;;12.44;100.00
49723;BME280;43484;43.608;1.458;2023-04-02T14:57:40;100339.09;;;12.43;100.00
49723;BME280;43484;43.608;1.458;2023-04-02T15:08:11;100320.63;;;12.84;100.00
49723;BME280;43484;43.608;1.458;2023-04-02T15:18:37;100332.41;;;13.06;100.00
49723;BME280;43484;43.608;1.458;2023-04-02T15:32:00;100118.09;;;10.98;100.00
49723;BME280;43484;43.608;1.458;2023-04-02T15:34:40;100034.31;;;10.70;100.00
49723;BME280;43484;43.608;1.458;2023-04-02T15:37:34;99978.69;;;10.66;100.00
49723;BME280;43484;43.608;1.458;2023-04-02T15:46:13;99930.03;;;10.66;100.00
49723;BME280;43484;43.608;1.458;2023-04-02T16:00:01;100005.81;;;10.86;100.00
49723;BME280;43484;43.608;1.458;2023-04-02T16:10:37;100012.78;;;10.92;100.00
49723;BME280;43484;43.608;1.458;2023-04-02T16:13:30;99994.38;;;10.77;100.00
49723;BME280;43484;43.608;1.458;2023-04-02T16:16:05;99972.19;;;10.77;100.00
49723;BME280;43484;43.608;1.458;2023-04-02T16:21:11;99977.41;;;10.80;100.00
49723;BME280;43484;43.608;1.458;2023-04-02T16:23:40;99987.88;;;11.14;100.00
49723;BME280;43484;43.608;1.458;2023-04-02T16:37:15;100282.84;;;12.52;100.00
49723;BME280;43484;43.608;1.458;2023-04-02T16:45:29;100346.22;;;12.81;100.00
49723;BME280;43484;43.608;1.458;2023-04-02T16:49:03;100352.97;;;13.06;100.00
49723;BME280;43484;43.608;1.458;2023-04-02T16:51:42;100369.16;;;12.74;100.00
49723;BME280;43484;43.608;1.458;2023-04-02T16:54:42;100370.28;;;12.53;100.00
49723;BME280;43484;43.608;1.458;2023-04-02T17:00:00;100371.28;;;12.30;100.00
49723;BME280;43484;43.608;1.458;2023-04-02T17:08:17;100307.56;;;12.19;100.00
49723;BME280;43484;43.608;1.458;2023-04-02T17:10:55;100303.44;;;12.24;100.00
49723;BME280;43484;43.608;1.458;2023-04-02T17:16:19;100293.13;;;11.69;100.00
49723;BME280;43484;43.608;1.458;2023-04-02T17:18:50;100273.66;;;11.51;100.00
49723;BME280;43484;43.608;1.458;2023-04-02T17:21:21;100237.59;;;11.71;100.00
49723;BME280;43484;43.608;1.458;2023-04-02T17:24:20;100240.47;;;11.55;100.00
49723;BME280;43484;43.608;1.458;2023-04-02T17:29:51;100266.56;;;11.17;100.00
49723;BME280;43484;43.608;1.458;2023-04-02T17:32:23;100233.59;;;11.02;100.00
49723;BME280;43484;43.608;1.458;2023-04-02T17:34:51;100156.50;;;10.96;100.00
49723;BME280;43484;43.608;1.458;2023-04-02T17:38:07;100130.97;;;10.74;100.00
49723;BME280;43484;43.608;1.458;2023-04-02T17:40:34;100150.16;;;10.62;100.00
49723;BME280;43484;43.608;1.458;2023-04-02T17:51:19;100167.16;;;10.58;100.00
49723;BME280;43484;43.608;1.458;2023-04-02T18:13:06;100072.44;;;10.60;100.00
49723;BME280;43484;43.608;1.458;2023-04-02T18:15:44;100052.63;;;10.56;100.00
49723;BME280;43484;43.608;1.458;2023-04-02T18:20:49;100018.13;;;10.45;100.00
49723;BME280;43484;43.608;1.458;2023-04-02T18:34:36;100002.16;;;10.27;100.00
49723;BME280;43484;43.608;1.458;2023-04-02T18:38:01;99996.97;;;10.25;100.00
49723;BME280;43484;43.608;1.458;2023-04-02T18:42:55;99997.53;;;10.17;100.00
49723;BME280;43484;43.608;1.458;2023-04-02T18:45:41;99985.53;;;10.14;100.00
49723;BME280;43484;43.608;1.458;2023-04-02T18:51:00;99984.69;;;10.15;100.00